Time;durP1;ratioP1;P1;durP2;ratioP2;P2;SDS_P1;SDS_P2;PMS_P1;PMS_P2;Temp;Humidity;BMP_temperature;BMP_pressure;BME280_temperature;BME280_humidity;BME280_pressure;Samples;Min_cycle;Max_cycle;Signal;HPM_P1;HPM_P2
2023/06/11 00:01:29;;;;;;;58.00;3.17;;;;;;;;;;5051643;28;20804;-67
2023/06/11 00:03:56;;;;;;;57.27;2.40;;;;;;;;;;5051397;28;20530;-67
2023/06/11 00:06:24;;;;;;;57.60;2.60;;;;;;;;;;5051601;28;20448;-67
2023/06/11 00:08:53;;;;;;;57.50;2.40;;;;;;;;;;5050705;28;20486;-67
2023/06/11 00:11:21;;;;;;;57.40;2.37;;;;;;;;;;5051217;28;20449;-67
2023/06/11 00:13:48;;;;;;;57.50;2.37;;;;;;;;;;5051300;28;20469;-67
2023/06/11 00:16:15;;;;;;;57.20;2.43;;;;;;;;;;5051240;28;20452;-67
2023/06/11 00:18:43;;;;;;;57.20;2.30;;;;;;;;;;5050715;28;20453;-67
2023/06/11 00:21:10;;;;;;;58.97;2.60;;;;;;;;;;5051342;28;20444;-67
2023/06/11 00:23:38;;;;;;;57.80;2.60;;;;;;;;;;5050794;28;20973;-67
2023/06/11 00:26:06;;;;;;;57.17;2.30;;;;;;;;;;5051351;28;20800;-67
2023/06/11 00:28:34;;;;;;;57.33;2.40;;;;;;;;;;5050251;28;20452;-67
2023/06/11 00:31:03;;;;;;;58.13;3.20;;;;;;;;;;5050956;28;20998;-67
2023/06/11 00:33:30;;;;;;;57.30;2.40;;;;;;;;;;5051222;28;20460;-67
2023/06/11 00:35:57;;;;;;;57.47;2.67;;;;;;;;;;5050771;28;20963;-67
2023/06/11 00:38:25;;;;;;;57.90;2.90;;;;;;;;;;5051262;28;20784;-67
2023/06/11 00:40:52;;;;;;;57.43;2.50;;;;;;;;;;5050213;28;20448;-67
2023/06/11 00:43:23;;;;;;;56.87;2.10;;;;;;;;;;5051019;28;20468;-67
2023/06/11 00:45:51;;;;;;;57.30;2.30;;;;;;;;;;5051029;28;20510;-67
2023/06/11 00:48:19;;;;;;;57.30;2.70;;;;;;;;;;5050765;28;20444;-67
2023/06/11 00:50:47;;;;;;;57.47;2.77;;;;;;;;;;5050017;28;20569;-67
2023/06/11 00:53:14;;;;;;;57.50;2.70;;;;;;;;;;5051089;28;20567;-67
2023/06/11 00:55:41;;;;;;;57.10;2.50;;;;;;;;;;5050760;28;20459;-67
2023/06/11 00:58:13;;;;;;;57.70;2.93;;;;;;;;;;5050972;28;20453;-67
2023/06/11 01:00:42;;;;;;;57.27;2.57;;;;;;;;;;5050574;28;20498;-67
2023/06/11 01:03:17;;;;;;;57.20;2.40;;;;;;;;;;5050494;28;20471;-67
2023/06/11 01:05:47;;;;;;;57.27;2.30;;;;;;;;;;5050936;28;20462;-67
2023/06/11 01:08:17;;;;;;;57.27;2.70;;;;;;;;;;5050993;28;20456;-67
2023/06/11 01:10:44;;;;;;;57.20;2.13;;;;;;;;;;5050190;28;20557;-67
2023/06/11 01:13:11;;;;;;;57.40;2.50;;;;;;;;;;5054405;28;20828;-67
2023/06/11 01:15:38;;;;;;;57.10;2.20;;;;;;;;;;5054593;28;20501;-67
2023/06/11 01:18:12;;;;;;;58.63;3.00;;;;;;;;;;5054540;28;20452;-67
2023/06/11 01:20:42;;;;;;;57.17;2.33;;;;;;;;;;5054081;28;20888;-67
2023/06/11 01:23:33;;;;;;;59.57;3.10;;;;;;;;;;5054442;28;20475;-67
2023/06/11 01:26:15;;;;;;;57.20;2.20;;;;;;;;;;5052107;28;20444;-67
2023/06/11 01:28:46;;;;;;;57.17;2.40;;;;;;;;;;5054010;28;20432;-67
2023/06/11 01:31:15;;;;;;;57.17;2.37;;;;;;;;;;5054478;28;20939;-67
2023/06/11 01:33:42;;;;;;;58.93;2.57;;;;;;;;;;5054396;28;20460;-67
2023/06/11 01:36:10;;;;;;;57.13;2.50;;;;;;;;;;5054076;28;20447;-67
2023/06/11 01:38:41;;;;;;;57.03;2.30;;;;;;;;;;5053384;28;20509;-67
2023/06/11 01:41:08;;;;;;;59.30;2.60;;;;;;;;;;5054256;28;20436;-66
2023/06/11 01:43:35;;;;;;;57.23;2.60;;;;;;;;;;5054040;28;20483;-67
2023/06/11 01:46:05;;;;;;;57.57;2.77;;;;;;;;;;5054021;28;20439;-67
2023/06/11 01:48:32;;;;;;;58.20;3.03;;;;;;;;;;5053561;28;20444;-67
2023/06/11 01:50:59;;;;;;;58.17;3.17;;;;;;;;;;5053761;28;20440;-67
2023/06/11 01:53:26;;;;;;;57.50;2.80;;;;;;;;;;5053988;28;20891;-67
2023/06/11 01:55:54;;;;;;;57.43;2.63;;;;;;;;;;5053613;28;20458;-67
2023/06/11 01:58:22;;;;;;;57.23;2.30;;;;;;;;;;5053832;28;20551;-67
2023/06/11 02:00:49;;;;;;;57.70;3.00;;;;;;;;;;5053196;28;20832;-67
2023/06/11 02:03:17;;;;;;;57.70;3.27;;;;;;;;;;5053719;28;20491;-67
2023/06/11 02:05:44;;;;;;;58.53;2.90;;;;;;;;;;5053546;28;20448;-67
2023/06/11 02:08:12;;;;;;;57.33;2.67;;;;;;;;;;5053908;28;20505;-67
2023/06/11 02:10:39;;;;;;;57.70;2.60;;;;;;;;;;5053016;28;20444;-67
2023/06/11 02:13:06;;;;;;;57.47;2.80;;;;;;;;;;5053632;28;20469;-67
2023/06/11 02:15:33;;;;;;;57.40;2.87;;;;;;;;;;5053450;28;20455;-67
2023/06/11 02:18:00;;;;;;;57.30;2.50;;;;;;;;;;5053433;28;20548;-67
2023/06/11 02:20:29;;;;;;;57.40;2.83;;;;;;;;;;5052757;28;20856;-67
2023/06/11 02:23:17;;;;;;;57.30;2.23;;;;;;;;;;5052214;28;20481;-67
2023/06/11 02:25:44;;;;;;;57.00;2.47;;;;;;;;;;5050617;28;20448;-67
2023/06/11 02:28:11;;;;;;;58.00;3.77;;;;;;;;;;5053315;28;20513;-67
2023/06/11 02:30:38;;;;;;;57.20;2.60;;;;;;;;;;5052336;28;20444;-67
2023/06/11 02:33:06;;;;;;;57.27;2.50;;;;;;;;;;5053081;28;21185;-67
2023/06/11 02:35:34;;;;;;;58.40;2.90;;;;;;;;;;5053350;28;20452;-67
2023/06/11 02:38:01;;;;;;;57.40;2.73;;;;;;;;;;5053155;28;20463;-67
2023/06/11 02:40:28;;;;;;;57.07;2.70;;;;;;;;;;5052609;28;20479;-67
2023/06/11 02:42:55;;;;;;;58.90;3.03;;;;;;;;;;5053219;28;20463;-67
2023/06/11 02:45:23;;;;;;;57.70;2.70;;;;;;;;;;5052976;28;20448;-67
2023/06/11 02:47:50;;;;;;;57.40;2.93;;;;;;;;;;5053108;28;20798;-67
2023/06/11 02:50:17;;;;;;;57.20;2.27;;;;;;;;;;5052361;28;20444;-67
2023/06/11 02:52:45;;;;;;;57.60;2.80;;;;;;;;;;5052614;28;20464;-67
2023/06/11 02:55:12;;;;;;;57.70;3.30;;;;;;;;;;5052819;28;20456;-67
2023/06/11 02:57:39;;;;;;;57.17;2.57;;;;;;;;;;5052692;28;20452;-67
2023/06/11 03:00:08;;;;;;;57.27;2.50;;;;;;;;;;5052079;28;20848;-67
2023/06/11 03:02:35;;;;;;;57.80;3.00;;;;;;;;;;5052980;28;20494;-67
2023/06/11 03:05:02;;;;;;;57.50;2.70;;;;;;;;;;5052551;28;20451;-67
2023/06/11 03:07:29;;;;;;;59.30;3.73;;;;;;;;;;5052332;28;20452;-67
2023/06/11 03:09:58;;;;;;;57.30;3.07;;;;;;;;;;5051772;28;20440;-67
2023/06/11 03:12:25;;;;;;;57.17;2.40;;;;;;;;;;5052868;28;20464;-67
2023/06/11 03:14:52;;;;;;;57.50;3.00;;;;;;;;;;5052610;28;20455;-67
2023/06/11 03:17:19;;;;;;;57.27;2.43;;;;;;;;;;5052363;28;20452;-67
2023/06/11 03:19:46;;;;;;;57.50;2.67;;;;;;;;;;5051917;28;20480;-67
2023/06/11 03:22:13;;;;;;;57.10;2.80;;;;;;;;;;5052447;28;20480;-67
2023/06/11 03:24:40;;;;;;;57.37;2.50;;;;;;;;;;5052256;28;20827;-67
2023/06/11 03:27:10;;;;;;;57.17;2.43;;;;;;;;;;5052541;28;20448;-67
2023/06/11 03:29:37;;;;;;;57.40;2.80;;;;;;;;;;5051391;28;20449;-67
2023/06/11 03:32:04;;;;;;;57.60;2.60;;;;;;;;;;5052191;28;20820;-67
2023/06/11 03:34:31;;;;;;;57.50;2.60;;;;;;;;;;5051720;28;20455;-67
2023/06/11 03:36:58;;;;;;;57.17;2.50;;;;;;;;;;5052054;28;20455;-67
2023/06/11 03:39:25;;;;;;;57.53;2.63;;;;;;;;;;5051228;28;20448;-67
2023/06/11 03:41:52;;;;;;;57.20;2.60;;;;;;;;;;5052186;28;20448;-67
2023/06/11 03:44:21;;;;;;;57.80;3.33;;;;;;;;;;5051591;28;20448;-67
2023/06/11 03:46:48;;;;;;;58.37;3.83;;;;;;;;;;5051403;28;20945;-67
2023/06/11 03:49:15;;;;;;;57.97;3.10;;;;;;;;;;5051244;28;20794;-67
2023/06/11 03:51:42;;;;;;;59.00;3.00;;;;;;;;;;5051411;28;20785;-67
2023/06/11 03:54:09;;;;;;;57.57;2.67;;;;;;;;;;5051595;28;20475;-67
2023/06/11 03:56:36;;;;;;;57.37;2.57;;;;;;;;;;5051380;28;20468;-67
2023/06/11 03:59:03;;;;;;;57.30;3.07;;;;;;;;;;5050781;28;20968;-67
2023/06/11 04:01:31;;;;;;;57.70;2.90;;;;;;;;;;5051510;28;20849;-67
2023/06/11 04:03:58;;;;;;;57.27;2.70;;;;;;;;;;5051625;28;20464;-67
2023/06/11 04:06:27;;;;;;;57.30;2.77;;;;;;;;;;5051507;28;20444;-67
2023/06/11 04:08:54;;;;;;;57.07;2.57;;;;;;;;;;5051027;28;20458;-67
2023/06/11 04:11:21;;;;;;;57.37;2.80;;;;;;;;;;5051392;28;20448;-67
2023/06/11 04:13:50;;;;;;;56.97;2.30;;;;;;;;;;5050989;28;20479;-67
2023/06/11 04:16:17;;;;;;;57.57;2.90;;;;;;;;;;5051284;28;20452;-67
2023/06/11 04:18:47;;;;;;;59.10;3.20;;;;;;;;;;5050492;28;20506;-66
2023/06/11 04:21:15;;;;;;;57.43;2.87;;;;;;;;;;5051378;28;20468;-67
2023/06/11 04:23:42;;;;;;;57.20;2.40;;;;;;;;;;5050964;28;20475;-67
2023/06/11 04:26:10;;;;;;;57.80;2.83;;;;;;;;;;5051267;28;20451;-67
2023/06/11 04:28:37;;;;;;;57.50;2.63;;;;;;;;;;5050579;28;20528;-67
2023/06/11 04:31:06;;;;;;;57.13;2.30;;;;;;;;;;5051243;28;20444;-67
2023/06/11 04:33:33;;;;;;;57.00;2.43;;;;;;;;;;5050842;28;20566;-67
2023/06/11 04:36:05;;;;;;;57.30;2.63;;;;;;;;;;5051035;28;20444;-67
2023/06/11 04:38:32;;;;;;;57.47;2.60;;;;;;;;;;5050724;28;20471;-67
2023/06/11 04:41:00;;;;;;;57.50;2.50;;;;;;;;;;5050758;28;20923;-67
2023/06/11 04:43:27;;;;;;;57.37;2.60;;;;;;;;;;5051066;28;20468;-67
2023/06/11 04:45:56;;;;;;;57.90;2.57;;;;;;;;;;5051079;28;20824;-67
2023/06/11 04:48:24;;;;;;;56.97;2.23;;;;;;;;;;5055232;28;20444;-67
2023/06/11 04:50:51;;;;;;;57.00;2.30;;;;;;;;;;5054387;28;20444;-67
2023/06/11 04:53:22;;;;;;;57.80;2.90;;;;;;;;;;5054976;28;20472;-67
2023/06/11 04:55:50;;;;;;;57.07;2.20;;;;;;;;;;5055135;28;20533;-67
2023/06/11 04:58:20;;;;;;;57.40;3.10;;;;;;;;;;5054905;28;20436;-67
2023/06/11 05:00:47;;;;;;;57.00;2.00;;;;;;;;;;5054177;28;20580;-67
2023/06/11 05:03:16;;;;;;;56.77;2.37;;;;;;;;;;5054681;28;20468;-67
2023/06/11 05:05:49;;;;;;;57.17;2.67;;;;;;;;;;5055176;28;20542;-67
2023/06/11 05:08:17;;;;;;;57.60;3.60;;;;;;;;;;5054733;28;20492;-67
2023/06/11 05:10:45;;;;;;;57.40;2.70;;;;;;;;;;5054221;28;20858;-67
2023/06/11 05:13:12;;;;;;;57.03;2.80;;;;;;;;;;5054756;28;20467;-67
2023/06/11 05:15:40;;;;;;;57.17;2.50;;;;;;;;;;5054699;28;20444;-67
2023/06/11 05:18:07;;;;;;;57.10;2.70;;;;;;;;;;5054673;28;20452;-67
2023/06/11 05:20:35;;;;;;;57.90;3.67;;;;;;;;;;5053537;28;21007;-67
2023/06/11 05:23:03;;;;;;;58.90;2.67;;;;;;;;;;5054625;28;20857;-67
2023/06/11 05:25:31;;;;;;;58.30;2.83;;;;;;;;;;5054609;28;20522;-67
2023/06/11 05:28:01;;;;;;;57.03;2.30;;;;;;;;;;5054560;28;20495;-67
2023/06/11 05:30:29;;;;;;;58.67;3.23;;;;;;;;;;5053841;28;20441;-67
2023/06/11 05:32:58;;;;;;;57.17;2.70;;;;;;;;;;5054426;28;20518;-67
2023/06/11 05:35:25;;;;;;;57.00;2.70;;;;;;;;;;5054451;28;20451;-67
2023/06/11 05:37:55;;;;;;;58.10;2.77;;;;;;;;;;5054118;28;20444;-67
2023/06/11 05:40:22;;;;;;;58.47;4.80;;;;;;;;;;5053546;28;20483;-67
2023/06/11 05:42:49;;;;;;;56.97;2.40;;;;;;;;;;5054025;28;20470;-67
2023/06/11 05:45:19;;;;;;;57.37;2.53;;;;;;;;;;5054006;28;20463;-67
2023/06/11 05:47:46;;;;;;;57.70;2.70;;;;;;;;;;5053775;28;20452;-67
2023/06/11 05:50:13;;;;;;;58.17;2.70;;;;;;;;;;5053204;28;20829;-67
2023/06/11 05:52:40;;;;;;;57.60;2.97;;;;;;;;;;5054060;28;20663;-68
2023/06/11 05:55:08;;;;;;;57.20;2.60;;;;;;;;;;5054172;28;20444;-67
2023/06/11 05:57:36;;;;;;;57.97;3.20;;;;;;;;;;5053604;28;20448;-67
2023/06/11 06:00:03;;;;;;;56.87;2.53;;;;;;;;;;5053113;28;20460;-67
2023/06/11 06:02:31;;;;;;;57.80;2.93;;;;;;;;;;5053605;28;20476;-67
2023/06/11 06:04:58;;;;;;;57.20;2.53;;;;;;;;;;5053626;28;20456;-67
2023/06/11 06:07:25;;;;;;;57.10;2.50;;;;;;;;;;5053726;28;20821;-67
2023/06/11 06:09:53;;;;;;;58.20;3.13;;;;;;;;;;5053127;28;20444;-67
2023/06/11 06:12:20;;;;;;;56.80;2.07;;;;;;;;;;5053629;28;20468;-67
2023/06/11 06:14:47;;;;;;;57.60;2.40;;;;;;;;;;5053273;28;20457;-67
2023/06/11 06:17:14;;;;;;;56.97;2.43;;;;;;;;;;5053211;28;20937;-67
2023/06/11 06:19:42;;;;;;;57.47;2.50;;;;;;;;;;5052889;28;20457;-67
2023/06/11 06:22:09;;;;;;;57.90;3.10;;;;;;;;;;5053281;28;20488;-67
2023/06/11 06:24:36;;;;;;;57.40;3.03;;;;;;;;;;5053504;28;20458;-67
2023/06/11 06:27:04;;;;;;;57.60;3.00;;;;;;;;;;5053047;28;20455;-67
2023/06/11 06:29:32;;;;;;;56.73;2.50;;;;;;;;;;5052759;28;20460;-67
2023/06/11 06:31:59;;;;;;;57.67;2.43;;;;;;;;;;5053159;28;20871;-67
2023/06/11 06:34:27;;;;;;;58.37;3.03;;;;;;;;;;5053338;28;20801;-67
2023/06/11 06:36:55;;;;;;;59.10;2.70;;;;;;;;;;5053278;28;20453;-67
2023/06/11 06:39:22;;;;;;;61.17;4.13;;;;;;;;;;5052243;28;20445;-67
2023/06/11 06:41:49;;;;;;;57.87;2.80;;;;;;;;;;5052541;28;21027;-67
2023/06/11 06:44:16;;;;;;;59.77;2.93;;;;;;;;;;5053060;28;20454;-67
2023/06/11 06:46:43;;;;;;;57.50;2.80;;;;;;;;;;5053264;28;20487;-67
2023/06/11 06:49:10;;;;;;;57.40;2.60;;;;;;;;;;5052229;28;20452;-67
2023/06/11 06:51:38;;;;;;;57.80;2.67;;;;;;;;;;5052967;28;20444;-67
2023/06/11 06:54:06;;;;;;;56.93;2.10;;;;;;;;;;5053121;28;20479;-67
2023/06/11 06:56:33;;;;;;;57.30;2.30;;;;;;;;;;5052516;28;20987;-67
2023/06/11 06:59:00;;;;;;;57.43;2.93;;;;;;;;;;5052272;28;20824;-67
2023/06/11 07:01:28;;;;;;;57.20;2.40;;;;;;;;;;5052820;28;20507;-67
2023/06/11 07:03:55;;;;;;;56.87;2.17;;;;;;;;;;5052687;28;20843;-67
2023/06/11 07:06:22;;;;;;;56.87;2.10;;;;;;;;;;5052774;28;20452;-67
2023/06/11 07:08:49;;;;;;;57.30;2.43;;;;;;;;;;5051148;28;20461;-67
2023/06/11 07:11:17;;;;;;;56.97;2.60;;;;;;;;;;5052446;28;20452;-68
2023/06/11 07:13:44;;;;;;;57.20;2.63;;;;;;;;;;5052724;28;20464;-67
2023/06/11 07:16:11;;;;;;;58.67;2.50;;;;;;;;;;5052441;28;20816;-67
2023/06/11 07:18:38;;;;;;;57.30;2.67;;;;;;;;;;5051762;28;20449;-67
2023/06/11 07:21:06;;;;;;;57.37;2.80;;;;;;;;;;5052335;28;20493;-68
2023/06/11 07:23:33;;;;;;;56.90;2.77;;;;;;;;;;5051924;28;20464;-68
2023/06/11 07:26:00;;;;;;;57.13;2.33;;;;;;;;;;5051903;28;20456;-67
2023/06/11 07:28:28;;;;;;;56.97;2.50;;;;;;;;;;5052121;28;20448;-68
2023/06/11 07:30:55;;;;;;;56.87;2.30;;;;;;;;;;5051823;28;20448;-67
2023/06/11 07:33:22;;;;;;;56.70;2.33;;;;;;;;;;5052129;28;20965;-67
2023/06/11 07:35:50;;;;;;;56.97;2.17;;;;;;;;;;5051985;28;20846;-67
2023/06/11 07:38:17;;;;;;;57.40;2.37;;;;;;;;;;5051788;28;20452;-67
2023/06/11 07:40:44;;;;;;;57.20;2.77;;;;;;;;;;5051378;28;20456;-67
2023/06/11 07:43:11;;;;;;;57.80;3.33;;;;;;;;;;5051607;28;20480;-68
2023/06/11 07:45:40;;;;;;;58.37;2.90;;;;;;;;;;5051566;28;20949;-67
2023/06/11 07:48:07;;;;;;;56.80;2.57;;;;;;;;;;5051844;28;20452;-68
2023/06/11 07:50:34;;;;;;;56.97;2.37;;;;;;;;;;5050817;28;20445;-67
2023/06/11 07:53:02;;;;;;;57.50;2.63;;;;;;;;;;5051653;28;20507;-68
2023/06/11 07:55:29;;;;;;;56.90;2.40;;;;;;;;;;5051548;28;20460;-67
2023/06/11 07:57:56;;;;;;;56.83;2.50;;;;;;;;;;5051473;28;20444;-68
2023/06/11 08:00:24;;;;;;;57.50;2.70;;;;;;;;;;5050870;28;20455;-68
2023/06/11 08:02:52;;;;;;;56.87;2.10;;;;;;;;;;5051188;28;20488;-68
2023/06/11 08:05:19;;;;;;;58.10;3.20;;;;;;;;;;5051399;28;20451;-67
2023/06/11 08:07:48;;;;;;;58.57;2.87;;;;;;;;;;5051530;28;20491;-67
2023/06/11 08:10:15;;;;;;;57.57;2.80;;;;;;;;;;5050823;28;20471;-67
2023/06/11 08:12:42;;;;;;;59.80;3.60;;;;;;;;;;5051401;28;20464;-67
2023/06/11 08:15:10;;;;;;;57.10;2.50;;;;;;;;;;5051441;28;20457;-68
2023/06/11 08:17:37;;;;;;;56.73;2.30;;;;;;;;;;5051515;28;20479;-68
2023/06/11 08:20:07;;;;;;;57.30;2.50;;;;;;;;;;5050693;28;20448;-68
2023/06/11 08:22:34;;;;;;;56.97;2.13;;;;;;;;;;5051279;28;20515;-67
2023/06/11 08:25:01;;;;;;;57.20;2.50;;;;;;;;;;5051115;28;20988;-67
2023/06/11 08:27:29;;;;;;;57.20;2.83;;;;;;;;;;5051066;28;20471;-67
2023/06/11 08:29:56;;;;;;;57.13;2.60;;;;;;;;;;5050382;28;20444;-67
2023/06/11 08:32:23;;;;;;;57.23;2.60;;;;;;;;;;5050895;28;20483;-68
2023/06/11 08:34:50;;;;;;;56.77;2.10;;;;;;;;;;5051142;28;20445;-67
2023/06/11 08:37:18;;;;;;;57.40;3.13;;;;;;;;;;5051059;28;20471;-68
2023/06/11 08:39:45;;;;;;;56.83;2.07;;;;;;;;;;5050229;28;20455;-67
2023/06/11 08:42:12;;;;;;;57.73;3.60;;;;;;;;;;5050829;28;20496;-67
2023/06/11 08:44:39;;;;;;;57.43;2.67;;;;;;;;;;5051134;28;20444;-67
2023/06/11 08:47:09;;;;;;;56.70;2.50;;;;;;;;;;5051139;28;20488;-67
2023/06/11 08:49:40;;;;;;;56.67;2.00;;;;;;;;;;5050462;28;20452;-68
2023/06/11 08:52:08;;;;;;;56.50;1.87;;;;;;;;;;5050568;28;20475;-68
2023/06/11 08:54:37;;;;;;;56.97;2.40;;;;;;;;;;5050850;28;20448;-67
2023/06/11 08:57:04;;;;;;;56.97;1.90;;;;;;;;;;5050722;28;20455;-68
2023/06/11 08:59:31;;;;;;;57.50;2.77;;;;;;;;;;5050357;28;20459;-68
2023/06/11 09:01:59;;;;;;;56.47;2.10;;;;;;;;;;5050810;28;20488;-68
2023/06/11 09:04:26;;;;;;;56.87;2.33;;;;;;;;;;5050903;28;20451;-68
2023/06/11 09:06:53;;;;;;;56.47;2.47;;;;;;;;;;5050727;28;20452;-68
2023/06/11 09:09:20;;;;;;;56.90;2.30;;;;;;;;;;5049887;28;20452;-68
2023/06/11 09:11:49;;;;;;;56.50;2.20;;;;;;;;;;5051079;28;20927;-68
2023/06/11 09:14:16;;;;;;;56.77;2.17;;;;;;;;;;5050579;28;20964;-68
2023/06/11 09:16:44;;;;;;;56.90;2.30;;;;;;;;;;5050843;28;20448;-68
2023/06/11 09:19:13;;;;;;;57.20;2.30;;;;;;;;;;5049798;28;20452;-67
2023/06/11 09:21:40;;;;;;;57.40;2.60;;;;;;;;;;5050389;28;20476;-67
2023/06/11 09:24:08;;;;;;;56.67;2.30;;;;;;;;;;5050466;28;20471;-68
2023/06/11 09:26:35;;;;;;;56.60;2.20;;;;;;;;;;5050329;28;20502;-68
2023/06/11 09:29:05;;;;;;;57.30;2.97;;;;;;;;;;5049828;28;20448;-68
2023/06/11 09:31:32;;;;;;;57.10;2.50;;;;;;;;;;5050641;28;20820;-68
2023/06/11 09:34:03;;;;;;;56.77;2.07;;;;;;;;;;5053645;28;20468;-68
2023/06/11 09:36:32;;;;;;;57.20;2.20;;;;;;;;;;5054187;28;20458;-68
2023/06/11 09:38:59;;;;;;;56.50;2.30;;;;;;;;;;5053292;28;20952;-68
2023/06/11 09:41:27;;;;;;;56.97;2.23;;;;;;;;;;5054221;28;20458;-68
2023/06/11 09:43:54;;;;;;;56.97;2.47;;;;;;;;;;5053993;28;20480;-68
2023/06/11 09:46:22;;;;;;;56.60;2.33;;;;;;;;;;5053901;28;20948;-68
2023/06/11 09:48:50;;;;;;;56.33;2.07;;;;;;;;;;5053332;28;20447;-68
2023/06/11 09:51:21;;;;;;;56.47;2.20;;;;;;;;;;5053354;28;20444;-68
2023/06/11 09:53:50;;;;;;;56.90;2.00;;;;;;;;;;5054121;28;20468;-68
2023/06/11 09:56:17;;;;;;;57.43;2.70;;;;;;;;;;5053854;28;20460;-68
2023/06/11 09:58:45;;;;;;;56.67;2.00;;;;;;;;;;5053369;28;20448;-67
2023/06/11 10:01:12;;;;;;;56.77;2.40;;;;;;;;;;5053798;28;20440;-68
2023/06/11 10:03:41;;;;;;;57.47;2.50;;;;;;;;;;5053121;28;20502;-68
2023/06/11 10:06:11;;;;;;;56.30;1.97;;;;;;;;;;5052666;28;20553;-68
2023/06/11 10:08:38;;;;;;;56.47;2.10;;;;;;;;;;5052572;28;20433;-70
2023/06/11 10:11:07;;;;;;;57.20;2.63;;;;;;;;;;5053041;28;20455;-70
2023/06/11 10:13:35;;;;;;;57.10;2.33;;;;;;;;;;5053283;28;20484;-70
2023/06/11 10:16:02;;;;;;;55.87;2.00;;;;;;;;;;5053441;28;20475;-70
2023/06/11 10:18:30;;;;;;;57.17;2.57;;;;;;;;;;5052680;28;20483;-70
2023/06/11 10:20:59;;;;;;;56.60;1.97;;;;;;;;;;5053062;28;20463;-70
2023/06/11 10:23:35;;;;;;;56.90;2.10;;;;;;;;;;5052865;28;20542;-70
2023/06/11 10:26:03;;;;;;;57.17;2.40;;;;;;;;;;5052833;28;20433;-70
2023/06/11 10:28:37;;;;;;;57.27;2.40;;;;;;;;;;5052984;28;20510;-70
2023/06/11 10:31:04;;;;;;;56.60;2.53;;;;;;;;;;5053463;28;20487;-70
2023/06/11 10:33:37;;;;;;;56.17;1.80;;;;;;;;;;5052340;28;20460;-70
2023/06/11 10:36:06;;;;;;;56.37;2.30;;;;;;;;;;5053180;28;20452;-70
2023/06/11 10:38:38;;;;;;;56.60;2.30;;;;;;;;;;5052693;28;20455;-70
2023/06/11 10:41:05;;;;;;;56.60;2.33;;;;;;;;;;5053297;28;20439;-70
2023/06/11 10:43:33;;;;;;;56.67;2.20;;;;;;;;;;5052109;28;20866;-70
2023/06/11 10:46:03;;;;;;;56.17;1.93;;;;;;;;;;5052295;28;20479;-70
2023/06/11 10:48:30;;;;;;;56.20;2.30;;;;;;;;;;5052589;28;20816;-70
2023/06/11 10:51:01;;;;;;;56.47;2.17;;;;;;;;;;5052544;28;20448;-70
2023/06/11 10:53:39;;;;;;;55.87;2.00;;;;;;;;;;5052652;28;20460;-70
2023/06/11 10:56:07;;;;;;;56.10;2.10;;;;;;;;;;5052632;28;20472;-70
2023/06/11 10:58:35;;;;;;;56.47;2.87;;;;;;;;;;5052038;28;20463;-67
2023/06/11 11:01:04;;;;;;;56.27;2.03;;;;;;;;;;5052799;28;20966;-68
2023/06/11 11:03:31;;;;;;;56.17;2.17;;;;;;;;;;5052133;28;20537;-68
2023/06/11 11:05:59;;;;;;;55.80;1.90;;;;;;;;;;5052513;28;20448;-68
2023/06/11 11:08:27;;;;;;;55.80;2.00;;;;;;;;;;5052450;28;20428;-68
2023/06/11 11:10:56;;;;;;;56.80;2.40;;;;;;;;;;5052108;28;20456;-68
2023/06/11 11:13:24;;;;;;;55.93;2.20;;;;;;;;;;5052332;28;20890;-69
2023/06/11 11:15:52;;;;;;;55.70;1.70;;;;;;;;;;5052269;28;20452;-68
2023/06/11 11:18:19;;;;;;;55.67;2.10;;;;;;;;;;5052470;28;20814;-68
2023/06/11 11:20:46;;;;;;;56.40;2.63;;;;;;;;;;5051560;28;20448;-68
2023/06/11 11:23:14;;;;;;;55.70;2.03;;;;;;;;;;5052224;28;20495;-68
2023/06/11 11:25:42;;;;;;;56.40;2.73;;;;;;;;;;5052281;28;20471;-68
2023/06/11 11:28:13;;;;;;;57.00;2.90;;;;;;;;;;5057270;28;20454;-68
2023/06/11 11:30:40;;;;;;;55.87;2.03;;;;;;;;;;5071660;28;20439;-68
2023/06/11 11:33:07;;;;;;;55.40;1.90;;;;;;;;;;5071957;28;20467;-68
2023/06/11 11:35:34;;;;;;;55.93;2.10;;;;;;;;;;5072254;28;20451;-68
2023/06/11 11:38:01;;;;;;;55.13;2.13;;;;;;;;;;5072047;28;20459;-68
2023/06/11 11:40:29;;;;;;;55.47;2.17;;;;;;;;;;5070934;28;20443;-68
2023/06/11 11:42:56;;;;;;;55.90;2.00;;;;;;;;;;5071924;28;20497;-68
2023/06/11 11:45:32;;;;;;;56.07;2.43;;;;;;;;;;5071937;28;20443;-68
2023/06/11 11:47:59;;;;;;;55.87;2.00;;;;;;;;;;5071918;28;20431;-68
2023/06/11 11:50:27;;;;;;;56.00;1.97;;;;;;;;;;5070859;28;20451;-68
2023/06/11 11:53:04;;;;;;;55.70;1.80;;;;;;;;;;5071678;28;20467;-68
2023/06/11 11:55:33;;;;;;;55.77;2.20;;;;;;;;;;5071208;28;20503;-68
2023/06/11 11:58:10;;;;;;;56.67;2.80;;;;;;;;;;5071861;28;20432;-68
2023/06/11 12:00:39;;;;;;;55.37;1.70;;;;;;;;;;5070790;28;20509;-68
2023/06/11 12:03:09;;;;;;;55.90;2.30;;;;;;;;;;5071583;28;20867;-68
2023/06/11 12:05:37;;;;;;;55.43;2.10;;;;;;;;;;5071376;28;21033;-68
2023/06/11 12:08:04;;;;;;;55.70;2.43;;;;;;;;;;5071592;28;20450;-69
2023/06/11 12:10:31;;;;;;;55.83;2.20;;;;;;;;;;5070702;28;20546;-69
2023/06/11 12:12:59;;;;;;;55.80;2.23;;;;;;;;;;5071521;28;20463;-69
2023/06/11 12:15:26;;;;;;;56.40;3.30;;;;;;;;;;5071572;28;20451;-69
2023/06/11 12:17:55;;;;;;;56.10;2.13;;;;;;;;;;5071462;28;20450;-68
2023/06/11 12:20:22;;;;;;;56.37;2.60;;;;;;;;;;5070733;28;20447;-69
2023/06/11 12:22:49;;;;;;;56.70;3.40;;;;;;;;;;5071204;28;20489;-68
2023/06/11 12:25:17;;;;;;;55.50;1.87;;;;;;;;;;5071589;28;20451;-69
2023/06/11 12:27:44;;;;;;;55.70;2.27;;;;;;;;;;5071129;28;20448;-69
2023/06/11 12:30:12;;;;;;;55.80;2.50;;;;;;;;;;5070706;28;20455;-68
2023/06/11 12:32:39;;;;;;;55.17;1.97;;;;;;;;;;5071306;28;20490;-69
2023/06/11 12:35:08;;;;;;;55.90;2.43;;;;;;;;;;5071655;28;20447;-70
2023/06/11 12:37:36;;;;;;;55.67;2.20;;;;;;;;;;5071568;28;20451;-70
2023/06/11 12:40:03;;;;;;;55.83;2.50;;;;;;;;;;5070920;28;20483;-70
2023/06/11 12:42:32;;;;;;;55.17;2.00;;;;;;;;;;5071063;28;20464;-71
2023/06/11 12:44:59;;;;;;;55.30;1.90;;;;;;;;;;5071389;28;20451;-71
2023/06/11 12:47:26;;;;;;;55.10;2.20;;;;;;;;;;5070941;28;20451;-70
2023/06/11 12:49:53;;;;;;;55.57;2.27;;;;;;;;;;5070592;28;20439;-70
2023/06/11 12:52:22;;;;;;;55.27;1.90;;;;;;;;;;5071082;28;20467;-70
2023/06/11 12:54:49;;;;;;;55.40;2.30;;;;;;;;;;5070817;28;20977;-70
2023/06/11 12:57:19;;;;;;;55.40;2.37;;;;;;;;;;5070809;28;20486;-71
2023/06/11 12:59:46;;;;;;;55.07;1.83;;;;;;;;;;5070263;28;20501;-71
2023/06/11 13:02:14;;;;;;;55.20;2.00;;;;;;;;;;5071111;28;20459;-72
2023/06/11 13:04:45;;;;;;;55.20;1.80;;;;;;;;;;5070892;28;20471;-71
2023/06/11 13:07:12;;;;;;;55.40;2.20;;;;;;;;;;5070908;28;20440;-70
2023/06/11 13:09:41;;;;;;;55.40;2.40;;;;;;;;;;5068807;28;20443;-70
2023/06/11 13:12:08;;;;;;;55.27;2.20;;;;;;;;;;5074577;28;20458;-69
2023/06/11 13:14:35;;;;;;;54.97;2.07;;;;;;;;;;5074234;28;20855;-69
2023/06/11 13:17:02;;;;;;;55.87;2.60;;;;;;;;;;5074197;28;20443;-69
2023/06/11 13:19:29;;;;;;;55.47;2.50;;;;;;;;;;5073606;28;20935;-68
2023/06/11 13:21:57;;;;;;;55.20;2.00;;;;;;;;;;5051335;28;20462;-70
2023/06/11 13:24:24;;;;;;;55.30;2.40;;;;;;;;;;5054665;28;20436;-69
2023/06/11 13:26:52;;;;;;;55.70;2.30;;;;;;;;;;5052751;28;20521;-69
2023/06/11 13:29:22;;;;;;;56.23;2.33;;;;;;;;;;5053836;28;20956;-69
2023/06/11 13:31:49;;;;;;;55.53;2.13;;;;;;;;;;5054517;28;20505;-69
2023/06/11 13:34:16;;;;;;;55.57;2.27;;;;;;;;;;5054242;28;20516;-69
2023/06/11 13:36:43;;;;;;;55.70;1.93;;;;;;;;;;5054278;28;20448;-69
2023/06/11 13:39:11;;;;;;;57.27;2.70;;;;;;;;;;5053826;28;20455;-69
2023/06/11 13:41:38;;;;;;;55.80;2.37;;;;;;;;;;5054251;28;20953;-69
2023/06/11 13:44:09;;;;;;;55.80;2.60;;;;;;;;;;5052407;28;20482;-69
2023/06/11 13:46:36;;;;;;;59.33;3.40;;;;;;;;;;5072815;28;20428;-70
2023/06/11 13:49:03;;;;;;;55.77;2.30;;;;;;;;;;5071760;28;20462;-69
2023/06/11 13:51:32;;;;;;;55.40;2.03;;;;;;;;;;5073955;28;20461;-69
2023/06/11 13:53:59;;;;;;;55.60;2.10;;;;;;;;;;5049829;28;20586;-70
2023/06/11 13:56:26;;;;;;;55.33;2.10;;;;;;;;;;5052531;28;20456;-69
2023/06/11 13:58:53;;;;;;;55.07;2.00;;;;;;;;;;5052423;28;20459;-69
2023/06/11 14:01:22;;;;;;;55.40;2.40;;;;;;;;;;5052257;28;20456;-69
2023/06/11 14:03:49;;;;;;;56.27;3.37;;;;;;;;;;5052512;28;20537;-69
2023/06/11 14:06:16;;;;;;;55.50;2.73;;;;;;;;;;5052827;28;20455;-68
2023/06/11 14:08:45;;;;;;;54.63;2.03;;;;;;;;;;5051547;28;21027;-69
2023/06/11 14:11:13;;;;;;;55.30;2.23;;;;;;;;;;5053016;28;20502;-69
2023/06/11 14:13:40;;;;;;;55.10;1.67;;;;;;;;;;5052304;28;20549;-69
2023/06/11 14:16:07;;;;;;;55.27;1.80;;;;;;;;;;5052399;28;20506;-69
2023/06/11 14:18:36;;;;;;;55.80;1.83;;;;;;;;;;5052395;28;20452;-69
2023/06/11 14:21:03;;;;;;;57.20;3.50;;;;;;;;;;5053147;28;20459;-69
2023/06/11 14:23:30;;;;;;;55.77;2.50;;;;;;;;;;5053243;28;20468;-69
2023/06/11 14:25:57;;;;;;;55.97;2.53;;;;;;;;;;5065539;28;20797;-69
2023/06/11 14:28:24;;;;;;;55.60;2.33;;;;;;;;;;5072163;28;20459;-69
2023/06/11 14:30:52;;;;;;;55.43;1.83;;;;;;;;;;5072356;28;20443;-69
2023/06/11 14:33:19;;;;;;;55.50;2.10;;;;;;;;;;5072578;28;20495;-69
2023/06/11 14:35:50;;;;;;;56.07;2.00;;;;;;;;;;5072331;28;20451;-69